Flight Track Log - Related Links

Times and Time Zones

All times are in EDT time to prevent confusion due to time zone crossing. See the DAL129 flight status page for this flight to view local times or setup timezone preferences in your user account.

Time Position Orientation Groundspeed Altitude Reporting Facility
EDT Latitude Longitude Course Direction KTS MPH feet Rate Location/Type
Sat 10:22:49 PM 47.4239 -122.3100 179° South 197 227 1,100  Level Seattle Center
Sat 10:23:26 PM 47.3903 -122.3089 181° South 186 214 2,700 1,979 Climbing Seattle Center
Sat 10:24:26 PM 47.3350 -122.3100 230° Southwest 198 228 4,300 1,785 Climbing Seattle Center
Sat 10:25:27 PM 47.2933 -122.3819 270° West 259 298 6,300 2,276 Climbing Seattle Center
Sat 10:26:22 PM 47.2936 -122.4797 301° West 268 308 8,700 1,748 Climbing Seattle Center
Sat 10:27:34 PM 47.3347 -122.5797 312° West 272 313 10,000 1,263 Climbing Seattle Center
Sat 10:28:35 PM 47.3864 -122.6658 312° West 288 331 11,500 1,426 Climbing Seattle Center
Sat 10:29:36 PM 47.4500 -122.7700 315° West 347 399 12,900 1,820 Climbing Seattle Center
Sat 10:30:37 PM 47.5211 -122.8747 320° Northwest 363 418 15,200 2,182 Climbing Seattle Center
Sat 10:31:37 PM 47.6006 -122.9744 318° Northwest 377 434 17,300 1,934 Climbing Seattle Center
Sat 10:32:38 PM 47.6967 -123.1025 317° Northwest 388 447 19,100 1,869 Climbing Seattle Center
Sat 10:33:39 PM 47.7761 -123.2117 318° Northwest 391 450 21,100 1,869 Climbing Seattle Center
Sat 10:34:40 PM 47.8583 -123.3206 318° Northwest 397 457 22,900 1,574 Climbing Seattle Center
Sat 10:35:41 PM 47.9406 -123.4314 319° Northwest 400 460 24,300 1,488 Climbing Seattle Center
Sat 10:36:41 PM 48.0239 -123.5417 318° Northwest 403 464 25,900 1,835 Climbing Seattle Center
Sat 10:37:42 PM 48.1119 -123.6608 318° Northwest 408 470 28,000 1,820 Climbing Seattle Center
Sat 10:38:43 PM 48.1928 -123.7697 318° Northwest 397 457 29,600 934 Climbing Seattle Center
Sat 10:39:44 PM 48.2733 -123.8786 314° West 392 451 29,900 162 Climbing Seattle Center
Sat 10:41:11 PM 48.3833 -124.0500 315° West 390 449 30,000 41 Climbing Vancouver Center
Sat 10:42:11 PM 48.4500 -124.1500 313° West 390 449 30,000  Level Vancouver Center
Sat 10:43:11 PM 48.5333 -124.2833 322° Northwest 390 449 30,000  Level Vancouver Center
Sat 10:44:11 PM 48.6167 -124.3833 317° Northwest 400 460 30,000  Level Vancouver Center
Sat 10:45:11 PM 48.7000 -124.5000 317° Northwest 400 460 30,000  Level Vancouver Center
Sat 10:46:11 PM 48.7833 -124.6167 322° Northwest 400 460 30,000  Level Vancouver Center
Sat 10:47:11 PM 48.8667 -124.7167 317° Northwest 400 460 30,000  Level Vancouver Center
Sat 10:48:11 PM 48.9500 -124.8333 311° West 400 460 30,000  Level Vancouver Center
Sat 10:49:11 PM 49.0167 -124.9500 323° Northwest 390 449 30,000  Level Vancouver Center
Sat 10:50:11 PM 49.1167 -125.0667 311° West 400 460 30,000  Level Vancouver Center
Sat 10:51:11 PM 49.1833 -125.1833 314° West 400 460 30,000  Level Vancouver Center
Sat 10:52:11 PM 49.2667 -125.3167 322° Northwest 400 460 30,000  Level Vancouver Center
Sat 10:53:11 PM 49.3500 -125.4167 314° West 400 460 30,000  Level Vancouver Center
Sat 10:54:11 PM 49.4333 -125.5500 316° Northwest 400 460 30,000  Level Vancouver Center
Sat 10:55:11 PM 49.5000 -125.6500 314° West 400 460 30,000  Level Vancouver Center
Sat 10:56:11 PM 49.5833 -125.7833 322° Northwest 400 460 30,000  Level Vancouver Center
Sat 10:57:11 PM 49.6667 -125.8833 318° Northwest 400 460 30,000  Level Vancouver Center
Sat 10:58:11 PM 49.7500 -126.0000 320° Northwest 400 460 30,000 21 Level Vancouver Center
Sat 11:05:32 PM 50.3941 -126.9674 320° Northwest  Level FlightAware Approximate
Sat 11:06:32 PM 50.4814 -127.1006 320° Northwest  Level FlightAware Approximate
Sat 11:07:32 PM 50.5685 -127.2344 320° Northwest  Level FlightAware Approximate
Sat 11:08:32 PM 50.6554 -127.3687 320° Northwest  Level FlightAware Approximate
Sat 11:09:32 PM 50.7421 -127.5035 320° Northwest  Level FlightAware Approximate
Sat 11:10:32 PM 50.8288 -127.6387 320° Northwest  Level FlightAware Approximate
Sat 11:11:32 PM 50.9152 -127.7745 320° Northwest  Level FlightAware Approximate
Sat 11:12:32 PM 51.0015 -127.9108 319° Northwest  Level FlightAware Approximate
Sat 11:13:32 PM 51.0877 -128.0476 319° Northwest  Level FlightAware Approximate
Sat 11:14:32 PM 51.1736 -128.1849 319° Northwest  Level FlightAware Approximate
Sat 11:15:32 PM 51.2595 -128.3227 319° Northwest  Level FlightAware Approximate
Sat 11:16:32 PM 51.3451 -128.4610 319° Northwest  Level FlightAware Approximate
Sat 11:17:32 PM 51.4306 -128.5999 319° Northwest  Level FlightAware Approximate
Sat 11:18:32 PM 51.5159 -128.7392 319° Northwest  Level FlightAware Approximate
Sat 11:19:32 PM 51.6011 -128.8791 319° Northwest  Level FlightAware Approximate
Sat 11:20:32 PM 51.6861 -129.0195 319° Northwest  Level FlightAware Approximate
Sat 11:21:32 PM 51.7709 -129.1604 319° Northwest  Level FlightAware Approximate
Sat 11:22:32 PM 51.8556 -129.3019 319° Northwest  Level FlightAware Approximate
Sat 11:23:32 PM 51.9401 -129.4439 319° Northwest  Level FlightAware Approximate
Sat 11:24:32 PM 52.0244 -129.5865 319° Northwest  Level FlightAware Approximate
Sat 11:25:32 PM 52.1085 -129.7295 319° Northwest  Level FlightAware Approximate
Sat 11:26:32 PM 52.2006 -129.8594 319° Northwest  Level FlightAware Approximate
Sat 11:27:32 PM 52.2925 -129.9898 319° Northwest  Level FlightAware Approximate
Sat 11:28:32 PM 52.3842 -130.1207 319° Northwest  Level FlightAware Approximate
Sat 11:29:32 PM 52.4758 -130.2522 319° Northwest  Level FlightAware Approximate
Sat 11:30:32 PM 52.5673 -130.3842 318° Northwest  Level FlightAware Approximate
Sat 11:31:32 PM 52.6586 -130.5168 318° Northwest  Level FlightAware Approximate
Sat 11:32:32 PM 52.7497 -130.6499 318° Northwest  Level FlightAware Approximate
Sat 11:33:32 PM 52.8407 -130.7836 318° Northwest  Level FlightAware Approximate
Sat 11:34:32 PM 52.9316 -130.9178 318° Northwest  Level FlightAware Approximate
Sat 11:35:32 PM 53.0223 -131.0526 318° Northwest  Level FlightAware Approximate
Sat 11:36:32 PM 53.1129 -131.1880 318° Northwest  Level FlightAware Approximate
Sat 11:37:32 PM 53.2033 -131.3239 318° Northwest  Level FlightAware Approximate
Sat 11:38:32 PM 53.2935 -131.4605 318° Northwest  Level FlightAware Approximate
Sat 11:39:32 PM 53.3836 -131.5976 317° Northwest  Level FlightAware Approximate
Sat 11:40:32 PM 53.4735 -131.7352 317° Northwest  Level FlightAware Approximate
Sat 11:41:32 PM 53.5633 -131.8735 317° Northwest  Level FlightAware Approximate
Sat 11:42:32 PM 53.6529 -132.0124 317° Northwest  Level FlightAware Approximate
Sat 11:43:32 PM 53.7423 -132.1518 317° Northwest  Level FlightAware Approximate
Sat 11:44:32 PM 53.8316 -132.2918 317° Northwest  Level FlightAware Approximate
Sat 11:45:32 PM 53.9207 -132.4325 317° Northwest  Level FlightAware Approximate
Sat 11:46:32 PM 54.0097 -132.5737 317° Northwest  Level FlightAware Approximate
Sat 11:47:32 PM 54.0985 -132.7155 316° Northwest  Level FlightAware Approximate
Sat 11:48:32 PM 54.1871 -132.8580 316° Northwest  Level FlightAware Approximate
Sat 11:49:32 PM 54.2756 -133.0011 316° Northwest  Level FlightAware Approximate
Sat 11:50:32 PM 54.3638 -133.1447 316° Northwest  Level FlightAware Approximate
Sat 11:51:32 PM 54.4519 -133.2890 316° Northwest  Level FlightAware Approximate
Sat 11:52:32 PM 54.5389 -133.4356 316° Northwest  Level FlightAware Approximate
Sat 11:53:32 PM 54.6258 -133.5828 316° Northwest  Level FlightAware Approximate
Sat 11:54:32 PM 54.7124 -133.7307 316° Northwest  Level FlightAware Approximate
Sat 11:55:32 PM 54.7960 -133.8741 315° West  Level FlightAware Approximate
Sat 11:56:32 PM 54.8793 -134.0182 315° West  Level FlightAware Approximate
Sat 11:57:32 PM 54.9626 -134.1629 315° West  Level FlightAware Approximate
Sat 11:58:32 PM 55.0456 -134.3081 315° West  Level FlightAware Approximate
Sat 11:59:32 PM 55.1285 -134.4540 315° West  Level FlightAware Approximate
Sun 12:00:32 AM 55.2112 -134.6005 315° West  Level FlightAware Approximate
Sun 12:01:32 AM 55.2937 -134.7476 315° West  Level FlightAware Approximate
Sun 12:02:32 AM 55.3760 -134.8953 315° West  Level FlightAware Approximate
Sun 12:03:32 AM 55.4582 -135.0436 315° West  Level FlightAware Approximate
Sun 12:04:32 AM 55.5402 -135.1925 315° West  Level FlightAware Approximate
Sun 12:05:32 AM 55.6220 -135.3421 314° West  Level FlightAware Approximate
Sun 12:06:32 AM 55.7036 -135.4922 314° West  Level FlightAware Approximate
Sun 12:07:32 AM 55.7851 -135.6430 314° West  Level FlightAware Approximate
Sun 12:08:32 AM 55.8663 -135.7945 314° West  Level FlightAware Approximate
Sun 12:09:32 AM 55.9474 -135.9465 314° West  Level FlightAware Approximate
Sun 12:10:32 AM 56.0283 -136.0993 314° West  Level FlightAware Approximate
Sun 12:11:32 AM 56.1090 -136.2526 314° West  Level FlightAware Approximate
Sun 12:12:32 AM 56.1894 -136.4066 314° West  Level FlightAware Approximate
Sun 12:13:32 AM 56.2697 -136.5612 314° West  Level FlightAware Approximate
Sun 12:14:32 AM 56.3499 -136.7165 313° West  Level FlightAware Approximate
Sun 12:15:32 AM 56.4298 -136.8725 313° West  Level FlightAware Approximate
Sun 12:16:32 AM 56.5095 -137.0291 313° West  Level FlightAware Approximate
Sun 12:17:32 AM 56.5890 -137.1863 313° West  Level FlightAware Approximate
Sun 12:18:32 AM 56.6683 -137.3443 313° West  Level FlightAware Approximate
Sun 12:19:32 AM 56.7475 -137.5028 313° West  Level FlightAware Approximate
Sun 12:20:32 AM 56.8264 -137.6621 313° West  Level FlightAware Approximate
Sun 12:21:32 AM 56.9051 -137.8220 313° West  Level FlightAware Approximate
Sun 12:22:32 AM 56.9836 -137.9826 313° West  Level FlightAware Approximate
Sun 12:23:32 AM 57.0619 -138.1439 313° West  Level FlightAware Approximate
Sun 12:24:32 AM 57.1400 -138.3059 313° West  Level FlightAware Approximate
Sun 12:25:32 AM 57.2179 -138.4685 313° West  Level FlightAware Approximate
Sun 12:26:32 AM 57.2956 -138.6318 314° West  Level FlightAware Approximate
Sun 12:27:32 AM 57.3731 -138.7959 314° West  Level FlightAware Approximate
Sun 12:28:32 AM 57.4503 -138.9606 315° West  Level FlightAware Approximate
Sun 12:29:32 AM 57.5273 -139.1260 317° Northwest  Level FlightAware Approximate
Sun 12:30:32 AM 57.6041 -139.2921 327° Northwest  Level FlightAware Approximate
Sun 12:31:32 AM 57.6807 -139.4589 106° East  Level FlightAware Approximate
Sun 12:32:32 AM 57.7571 -139.6264 123° Southeast  Level FlightAware Approximate
Sun 12:33:32 AM 57.8333 -139.7946 126° Southeast  Level FlightAware Approximate
Sun 12:34:32 AM 57.9092 -139.9636 127° Southeast  Level FlightAware Approximate
Sun 12:34:36 AM 57.6667 -139.3667 313° West 440 506 32,000  Level Anchorage Center
Sun 12:39:38 AM 58.1000 -140.2500 311° West 440 506 32,000  Level Anchorage Center
Sun 12:40:38 AM 58.1833 -140.4333 305° West 440 506 32,000  Level Anchorage Center
Sun 12:41:39 AM 58.2500 -140.6167 311° West 440 506 32,000  Level Anchorage Center
Sun 12:42:39 AM 58.3333 -140.8000 305° West 440 506 32,000  Level Anchorage Center
Sun 12:43:40 AM 58.4000 -140.9833 311° West 440 506 32,000  Level Anchorage Center
Sun 12:44:40 AM 58.4833 -141.1667 311° West 440 506 32,000  Level Anchorage Center
Sun 12:45:41 AM 58.5667 -141.3500 303° West 450 518 32,000  Level Anchorage Center
Sun 12:46:41 AM 58.6333 -141.5500 307° West 450 518 32,000  Level Anchorage Center
Sun 12:48:42 AM 58.7833 -141.9333 311° West 450 518 32,000  Level Anchorage Center
Sun 12:49:42 AM 58.8667 -142.1167 303° West 450 518 32,000  Level Anchorage Center
Sun 12:50:42 AM 58.9333 -142.3167 311° West 450 518 32,000  Level Anchorage Center
Sun 12:51:43 AM 59.0167 -142.5000 309° West 440 506 32,000  Level Anchorage Center
Sun 12:52:43 AM 59.1000 -142.7000 303° West 450 518 32,000  Level Anchorage Center
Sun 12:53:43 AM 59.1667 -142.9000 309° West 440 506 32,000  Level Anchorage Center
Sun 12:54:44 AM 59.2500 -143.1000 306° West 450 518 32,000  Level Anchorage Center
Sun 12:55:44 AM 59.3167 -143.2833 309° West 440 506 32,000  Level Anchorage Center
Sun 12:56:44 AM 59.4000 -143.4833 303° West 440 506 32,000  Level Anchorage Center
Sun 12:57:44 AM 59.4667 -143.6833 303° West 450 518 32,000  Level Anchorage Center
Sun 12:58:45 AM 59.5333 -143.8833 301° West 440 506 32,000  Level Anchorage Center
Sun 12:59:45 AM 59.6000 -144.1000 303° West 440 506 32,000  Level Anchorage Center
Sun 01:00:46 AM 59.6667 -144.3000 301° West 430 495 32,000  Level Anchorage Center
Sun 01:01:46 AM 59.7333 -144.5167 304° West 450 518 32,000  Level Anchorage Center
Sun 01:02:46 AM 59.8000 -144.7167 302° West 450 518 32,000  Level Anchorage Center
Sun 01:03:47 AM 59.8667 -144.9333 297° West 440 506 32,000  Level Anchorage Center
Sun 01:04:47 AM 59.9167 -145.1333 302° West 440 506 32,000  Level Anchorage Center
Sun 01:05:48 AM 59.9833 -145.3500 302° West 440 506 32,000  Level Anchorage Center
Sun 01:06:48 AM 60.0500 -145.5667 304° West 440 506 32,000  Level Anchorage Center
Sun 01:07:49 AM 60.1167 -145.7667 302° West 450 518 32,000  Level Anchorage Center
Sun 01:08:49 AM 60.1833 -145.9833 295° West 440 506 32,000  Level Anchorage Center
Sun 01:09:49 AM 60.2333 -146.2000 302° West 440 506 32,000  Level Anchorage Center
Sun 01:10:49 AM 60.3000 -146.4167 304° West 440 506 32,000  Level Anchorage Center
Sun 01:11:50 AM 60.3667 -146.6167 302° West 440 506 32,000  Level Anchorage Center
Sun 01:12:50 AM 60.4333 -146.8333 295° West 450 518 32,000  Level Anchorage Center
Sun 01:13:51 AM 60.4833 -147.0500 300° West 440 506 32,000  Level Anchorage Center
Sun 01:14:51 AM 60.5500 -147.2833 304° West 450 518 32,000  Level Anchorage Center
Sun 01:15:52 AM 60.6333 -147.5333 295° West 450 518 32,000  Level Anchorage Center
Sun 01:16:52 AM 60.6833 -147.7500 300° West 450 518 32,000  Level Anchorage Center
Sun 01:17:52 AM 60.7500 -147.9833 295° West 450 518 32,000  Level Anchorage Center
Sun 01:18:53 AM 60.8000 -148.2000 300° West 440 506 32,000  Level Anchorage Center
Sun 01:19:53 AM 60.8667 -148.4333 295° West 450 518 32,000  Level Anchorage Center
Sun 01:20:53 AM 60.9167 -148.6500 301° West 450 518 32,000  Level Anchorage Center
Sun 01:21:54 AM 60.9833 -148.8833 301° West 450 518 32,000  Level Anchorage Center
Sun 01:22:54 AM 61.0500 -149.1167 296° West 450 518 32,000  Level Anchorage Center
Sun 01:23:54 AM 61.1000 -149.3333 297° West 440 506 32,000  Level Anchorage Center
Sun 01:24:55 AM 61.1667 -149.6000 294° West 450 518 32,000  Level Anchorage Center
Sun 01:25:55 AM 61.2167 -149.8333 303° West 440 506 32,000  Level Anchorage Center
Sun 01:26:55 AM 61.2833 -150.0500 294° West 430 495 32,000  Level Anchorage Center
Sun 01:27:56 AM 61.3333 -150.2833 294° West 450 518 32,000  Level Anchorage Center
Sun 01:28:56 AM 61.3833 -150.5167 298° West 450 518 32,000 397 Level Anchorage Center
Sun 01:29:57 AM 61.4333 -150.7167 296° West 440 506 32,800 992 Climbing Anchorage Center
Sun 01:30:57 AM 61.5000 -151.0000 301° West 450 518 34,000 600 Climbing Anchorage Center
Sun 01:31:57 AM 61.5667 -151.2333 294° West 450 518 34,000  Level Anchorage Center
Sun 01:32:57 AM 61.6167 -151.4667 294° West 450 518 34,000  Level Anchorage Center
Sun 01:33:58 AM 61.6667 -151.7000 299° West 450 518 34,000  Level Anchorage Center
Sun 01:34:58 AM 61.7333 -151.9500 293° West 450 518 34,000  Level Anchorage Center
Sun 01:35:59 AM 61.7833 -152.2000 293° West 460 529 34,000  Level Anchorage Center
Sun 01:36:59 AM 61.8333 -152.4500 298° West 470 541 34,000  Level Anchorage Center
Sun 01:38:00 AM 61.9000 -152.7167 298° West 470 541 34,000  Level Anchorage Center
Sun 01:39:00 AM 61.9500 -152.9167 292° West 460 529 34,000  Level Anchorage Center
Sun 01:40:00 AM 62.0000 -153.1833 293° West 470 541 34,000  Level Anchorage Center
Sun 01:41:01 AM 62.0500 -153.4333 293° West 470 541 34,000  Level Anchorage Center
Sun 01:42:01 AM 62.1000 -153.6833 292° West 470 541 34,000  Level Anchorage Center
Sun 01:43:01 AM 62.1500 -153.9500 300° West 450 518 34,000  Level Anchorage Center
Sun 01:44:02 AM 62.2167 -154.2000 293° West 460 529 34,000  Level Anchorage Center
Sun 01:45:02 AM 62.2667 -154.4500 293° West 450 518 34,000  Level Anchorage Center
Sun 01:46:03 AM 62.3167 -154.7000 293° West 460 529 34,000  Level Anchorage Center
Sun 01:47:03 AM 62.3667 -154.9500 293° West 450 518 34,000  Level Anchorage Center
Sun 01:48:03 AM 62.4167 -155.2000 292° West 460 529 34,000  Level Anchorage Center
Sun 01:49:03 AM 62.4667 -155.4667 294° West 450 518 34,000  Level Anchorage Center
Sun 01:50:04 AM 62.5167 -155.7167 285° West 460 529 34,000  Level Anchorage Center
Sun 01:51:04 AM 62.5500 -155.9833 292° West 460 529 34,000  Level Anchorage Center
Sun 01:52:04 AM 62.6000 -156.2500 294° West 450 518 34,000  Level Anchorage Center
Sun 01:53:05 AM 62.6500 -156.5000 292° West 450 518 34,000  Level Anchorage Center
Sun 01:54:05 AM 62.7000 -156.7667 292° West 460 529 34,000  Level Anchorage Center
Sun 01:55:05 AM 62.7500 -157.0333 285° West 460 529 34,000  Level Anchorage Center
Sun 01:56:06 AM 62.7833 -157.3000 292° West 460 529 34,000  Level Anchorage Center
Sun 01:57:06 AM 62.8333 -157.5667 293° West 460 529 34,000  Level Anchorage Center
Sun 01:59:07 AM 62.9333 -158.0833 285° West 460 529 34,000  Level Anchorage Center
Sun 02:00:08 AM 62.9667 -158.3667 294° West 460 529 34,000  Level Anchorage Center
Sun 02:01:08 AM 63.0167 -158.6167 285° West 460 529 34,000  Level Anchorage Center
Sun 02:02:08 AM 63.0500 -158.9000 293° West 460 529 34,000  Level Anchorage Center
Sun 02:03:08 AM 63.1000 -159.1667 293° West 460 529 34,000  Level Anchorage Center
Sun 02:04:09 AM 63.1500 -159.4333 286° West 460 529 34,000  Level Anchorage Center
Sun 02:05:09 AM 63.1833 -159.7000 292° West 460 529 34,000  Level Anchorage Center
Sun 02:06:10 AM 63.2333 -159.9833 286° West 460 529 34,000  Level Anchorage Center
Sun 02:07:10 AM 63.2667 -160.2500 286° West 460 529 34,000  Level Anchorage Center
Sun 02:08:10 AM 63.3000 -160.5167 292° West 460 529 34,000  Level Anchorage Center
Sun 02:09:11 AM 63.3500 -160.8000 286° West 460 529 34,000  Level Anchorage Center
Sun 02:10:11 AM 63.3833 -161.0667 286° West 460 529 34,000  Level Anchorage Center
Sun 02:11:11 AM 63.4167 -161.3333 285° West 460 529 34,000  Level Anchorage Center
Sun 02:12:12 AM 63.4500 -161.6167 293° West 460 529 34,000  Level Anchorage Center
Sun 02:13:12 AM 63.5000 -161.8833 285° West 460 529 34,000  Level Anchorage Center
Sun 02:14:12 AM 63.5333 -162.1667 286° West 460 529 34,000  Level Anchorage Center
Sun 02:15:13 AM 63.5667 -162.4333 285° West 450 518 34,000  Level Anchorage Center
Sun 02:16:13 AM 63.6000 -162.7167 286° West 460 529 34,000  Level Anchorage Center
Sun 02:17:14 AM 63.6333 -162.9833 289° West 450 518 34,000  Level Anchorage Center
Sun 02:18:14 AM 63.6833 -163.3167 278° West 460 529 34,000  Level Anchorage Center
Sun 02:19:14 AM 63.7000 -163.6000 286° West 460 529 34,000  Level Anchorage Center
Sun 02:21:15 AM 63.7667 -164.1500 286° West 460 529 34,000  Level Anchorage Center
Sun 02:22:15 AM 63.8000 -164.4167 285° West 450 518 34,000  Level Anchorage Center
Sun 02:23:15 AM 63.8333 -164.7000 285° West 460 529 34,000  Level Anchorage Center
Sun 02:24:16 AM 63.8667 -164.9833 285° West 460 529 34,000  Level Anchorage Center
Sun 02:27:17 AM 63.9667 -165.8500 283° West 450 518 34,000  Level Anchorage Center
Sun 02:32:19 AM 64.1000 -167.2667 278° West 460 529 34,000  Level Anchorage Center
Sun 02:33:19 AM 64.1167 -167.5500 285° West 450 518 34,000  Level Anchorage Center
Sun 02:34:19 AM 64.1500 -167.8333 278° West 450 518 34,000  Level Anchorage Center
Sun 02:35:19 AM 64.1667 -168.1167 286° West 450 518 34,000  Level Anchorage Center
Sun 02:36:20 AM 64.2000 -168.3833 277° West 450 518 34,000  Level Anchorage Center
Sun 02:37:20 AM 64.2167 -168.6833 278° West 460 529 34,000  Level Anchorage Center
Sun 02:38:20 AM 64.2333 -168.9667 285° West 450 518 34,000  Level Anchorage Center
Sun 02:39:21 AM 64.2667 -169.2500 278° West 450 518 34,000  Level Anchorage Center
Sun 02:40:21 AM 64.2833 -169.5333 278° West 450 518 34,000  Level Anchorage Center
Sun 02:41:21 AM 64.3000 -169.8167 285° West 450 518 34,000  Level Anchorage Center
Sun 02:42:22 AM 64.3333 -170.1167 278° West 460 529 34,000  Level Anchorage Center
Sun 02:43:22 AM 64.3500 -170.4000 278° West 450 518 34,000  Level Anchorage Center
Sun 02:44:22 AM 64.3667 -170.6833 277° West 450 518 34,000  Level Anchorage Center
Sun 02:45:23 AM 64.3833 -170.9833 270° West 460 529 34,000  Level Anchorage Center
Sun 02:52:32 AM 64.3676 -173.0320 270° West  Level FlightAware Approximate
Sun 02:53:32 AM 64.3670 -173.3186 279° West  Level FlightAware Approximate
Sun 02:54:32 AM 64.3871 -173.6015 279° West  Level FlightAware Approximate
Sun 02:55:32 AM 64.4067 -173.8849 279° West  Level FlightAware Approximate
Sun 02:56:32 AM 64.4258 -174.1686 279° West  Level FlightAware Approximate
Sun 02:57:32 AM 64.4443 -174.4527 279° West  Level FlightAware Approximate
Sun 02:58:32 AM 64.4626 -174.7371 278° West  Level FlightAware Approximate
Sun 02:59:32 AM 64.4804 -175.0219 278° West  Level FlightAware Approximate
Sun 03:00:32 AM 64.4977 -175.3070 278° West  Level FlightAware Approximate
Sun 03:01:32 AM 64.5144 -175.5924 248° West  Level FlightAware Approximate
Sun 03:02:32 AM 64.4700 -175.8520 278° West  Level FlightAware Approximate
Sun 03:03:32 AM 64.4871 -176.1371 278° West  Level FlightAware Approximate
Sun 03:04:32 AM 64.5037 -176.4225 278° West  Level FlightAware Approximate
Sun 03:05:32 AM 64.5197 -176.7082 277° West  Level FlightAware Approximate
Sun 03:06:32 AM 64.5351 -176.9943 279° West  Level FlightAware Approximate
Sun 03:07:32 AM 64.5539 -177.2794 277° West  Level FlightAware Approximate
Sun 03:08:32 AM 64.5682 -177.5661 276° West  Level FlightAware Approximate
Sun 03:09:32 AM 64.5818 -177.8532 276° West  Level FlightAware Approximate
Sun 03:10:32 AM 64.5949 -178.1405 276° West  Level FlightAware Approximate
Sun 03:11:32 AM 64.6075 -178.4281 276° West  Level FlightAware Approximate
Sun 03:12:32 AM 64.6195 -178.7160 275° West  Level FlightAware Approximate
Sun 03:13:32 AM 64.6309 -179.0042 275° West  Level FlightAware Approximate
Sun 03:14:32 AM 64.6418 -179.2925 275° West  Level FlightAware Approximate
Sun 03:15:32 AM 64.6521 -179.5811 275° West  Level FlightAware Approximate
Sun 03:16:32 AM 64.6618 -179.8699 273° West  Level FlightAware Approximate
Sun 03:17:32 AM 64.6683 179.8407 274° West  Level FlightAware Approximate
Sun 03:18:32 AM 64.6772 179.5516 274° West  Level FlightAware Approximate
Sun 03:19:32 AM 64.6855 179.2623 274° West  Level FlightAware Approximate
Sun 03:20:32 AM 64.6932 178.9728 273° West  Level FlightAware Approximate
Sun 03:21:32 AM 64.7004 178.6832 273° West  Level FlightAware Approximate
Sun 03:22:32 AM 64.7070 178.3934 273° West  Level FlightAware Approximate
Sun 03:23:32 AM 64.7131 178.1035 273° West  Level FlightAware Approximate
Sun 03:24:32 AM 64.7186 177.8135 278° West  Level FlightAware Approximate
Sun 03:25:32 AM 64.7360 177.5302 267° West  Level FlightAware Approximate
Sun 03:26:32 AM 64.7294 177.2401 267° West  Level FlightAware Approximate
Sun 03:27:32 AM 64.7222 176.9501 267° West  Level FlightAware Approximate
Sun 03:28:32 AM 64.7145 176.6604 266° West  Level FlightAware Approximate
Sun 03:29:32 AM 64.7061 176.3708 266° West  Level FlightAware Approximate
Sun 03:30:32 AM 64.6973 176.0813 266° West  Level FlightAware Approximate
Sun 03:31:32 AM 64.6878 175.7921 265° West  Level FlightAware Approximate
Sun 03:32:32 AM 64.6778 175.5031 265° West  Level FlightAware Approximate
Sun 03:33:32 AM 64.6672 175.2143 265° West  Level FlightAware Approximate
Sun 03:34:32 AM 64.6561 174.9257 265° West  Level FlightAware Approximate
Sun 03:35:32 AM 64.6443 174.6374 264° West  Level FlightAware Approximate
Sun 03:36:32 AM 64.6321 174.3493 264° West  Level FlightAware Approximate
Sun 03:37:32 AM 64.6192 174.0615 264° West  Level FlightAware Approximate
Sun 03:38:32 AM 64.6059 173.7740 264° West  Level FlightAware Approximate
Sun 03:39:32 AM 64.5919 173.4867 263° West  Level FlightAware Approximate
Sun 03:40:32 AM 64.5774 173.1998 263° West  Level FlightAware Approximate
Sun 03:41:32 AM 64.5623 172.9131 263° West  Level FlightAware Approximate
Sun 03:42:32 AM 64.5467 172.6268 261° West  Level FlightAware Approximate
Sun 03:43:32 AM 64.5269 172.3421 261° West  Level FlightAware Approximate
Sun 03:44:32 AM 64.5065 172.0579 260° West  Level FlightAware Approximate
Sun 03:45:32 AM 64.4855 171.7740 260° West  Level FlightAware Approximate
Sun 03:46:32 AM 64.4640 171.4906 260° West  Level FlightAware Approximate
Sun 03:47:32 AM 64.4419 171.2077 260° West  Level FlightAware Approximate
Sun 03:48:32 AM 64.4193 170.9252 256° West  Level FlightAware Approximate
Sun 03:49:32 AM 64.3890 170.6469 256° West  Level FlightAware Approximate
Sun 03:50:32 AM 64.3580 170.3693 255° West  Level FlightAware Approximate
Sun 03:51:32 AM 64.3266 170.0923 255° West  Level FlightAware Approximate
Sun 03:52:32 AM 64.2946 169.8159 255° West  Level FlightAware Approximate
Sun 03:53:32 AM 64.2622 169.5401 255° West  Level FlightAware Approximate
Sun 03:54:32 AM 64.2292 169.2650 254° West  Level FlightAware Approximate
Sun 03:55:32 AM 64.1956 168.9906 254° West  Level FlightAware Approximate
Sun 03:56:32 AM 64.1616 168.7169 254° West  Level FlightAware Approximate
Sun 03:57:32 AM 64.1271 168.4438 254° West  Level FlightAware Approximate
Sun 03:58:32 AM 64.0920 168.1714 253° West  Level FlightAware Approximate
Sun 03:59:32 AM 64.0565 167.8997 249° West  Level FlightAware Approximate
Sun 04:00:32 AM 64.0122 167.6351 249° West  Level FlightAware Approximate
Sun 04:01:32 AM 63.9675 167.3714 249° West  Level FlightAware Approximate
Sun 04:02:32 AM 63.9223 167.1085 249° West  Level FlightAware Approximate
Sun 04:03:32 AM 63.8766 166.8464 248° West  Level FlightAware Approximate
Sun 04:04:32 AM 63.8305 166.5852 248° West  Level FlightAware Approximate
Sun 04:05:32 AM 63.7839 166.3249 248° West  Level FlightAware Approximate
Sun 04:06:32 AM 63.7368 166.0654 248° West  Level FlightAware Approximate
Sun 04:07:32 AM 63.6893 165.8069 247° West  Level FlightAware Approximate
Sun 04:08:32 AM 63.6413 165.5491 247° West  Level FlightAware Approximate
Sun 04:09:32 AM 63.5928 165.2923 247° West  Level FlightAware Approximate
Sun 04:10:32 AM 63.5439 165.0363 247° West  Level FlightAware Approximate
Sun 04:11:32 AM 63.4945 164.7812 246° West  Level FlightAware Approximate
Sun 04:12:32 AM 63.4446 164.5270 246° West  Level FlightAware Approximate
Sun 04:13:32 AM 63.3944 164.2737 246° West  Level FlightAware Approximate
Sun 04:14:32 AM 63.3437 164.0213 246° West  Level FlightAware Approximate
Sun 04:15:32 AM 63.2925 163.7697 246° West  Level FlightAware Approximate
Sun 04:16:32 AM 63.2409 163.5191 245° Southwest  Level FlightAware Approximate
Sun 04:17:32 AM 63.1888 163.2693 245° Southwest  Level FlightAware Approximate
Sun 04:18:32 AM 63.1363 163.0205 245° Southwest  Level FlightAware Approximate
Sun 04:19:32 AM 63.0834 162.7726 245° Southwest  Level FlightAware Approximate
Sun 04:20:32 AM 63.0300 162.5255 244° Southwest  Level FlightAware Approximate
Sun 04:21:32 AM 62.9763 162.2794 244° Southwest  Level FlightAware Approximate
Sun 04:22:32 AM 62.9221 162.0341 244° Southwest  Level FlightAware Approximate
Sun 04:23:32 AM 62.8674 161.7898 244° Southwest  Level FlightAware Approximate
Sun 04:24:32 AM 62.8124 161.5464 244° Southwest  Level FlightAware Approximate
Sun 04:25:32 AM 62.7569 161.3039 243° Southwest  Level FlightAware Approximate
Sun 04:26:32 AM 62.7010 161.0623 243° Southwest  Level FlightAware Approximate
Sun 04:27:32 AM 62.6447 160.8217 243° Southwest  Level FlightAware Approximate
Sun 04:28:32 AM 62.5880 160.5819 243° Southwest  Level FlightAware Approximate
Sun 04:29:32 AM 62.5309 160.3431 242° Southwest  Level FlightAware Approximate
Sun 04:30:32 AM 62.4734 160.1052 241° Southwest  Level FlightAware Approximate
Sun 04:31:32 AM 62.4138 159.8701 241° Southwest  Level FlightAware Approximate
Sun 04:32:32 AM 62.3539 159.6358 241° Southwest  Level FlightAware Approximate
Sun 04:33:32 AM 62.2936 159.4026 241° Southwest  Level FlightAware Approximate
Sun 04:34:32 AM 62.2329 159.1702 241° Southwest  Level FlightAware Approximate
Sun 04:35:32 AM 62.1718 158.9388 240° Southwest  Level FlightAware Approximate
Sun 04:36:32 AM 62.1104 158.7084 240° Southwest  Level FlightAware Approximate
Sun 04:37:32 AM 62.0485 158.4789 240° Southwest  Level FlightAware Approximate
Sun 04:38:32 AM 61.9863 158.2503 240° Southwest  Level FlightAware Approximate
Sun 04:39:32 AM 61.9237 158.0226 240° Southwest  Level FlightAware Approximate
Sun 04:40:32 AM 61.8607 157.7959 239° Southwest  Level FlightAware Approximate
Sun 04:41:32 AM 61.7974 157.5701 239° Southwest  Level FlightAware Approximate
Sun 04:42:32 AM 61.7337 157.3452 239° Southwest  Level FlightAware Approximate
Sun 04:43:32 AM 61.6696 157.1213 239° Southwest  Level FlightAware Approximate
Sun 04:44:32 AM 61.6051 156.8983 239° Southwest  Level FlightAware Approximate
Sun 04:45:32 AM 61.5403 156.6762 238° Southwest  Level FlightAware Approximate
Sun 04:46:32 AM 61.4751 156.4551 238° Southwest  Level FlightAware Approximate
Sun 04:47:32 AM 61.4096 156.2348 238° Southwest  Level FlightAware Approximate
Sun 04:48:32 AM 61.3437 156.0155 238° Southwest  Level FlightAware Approximate
Sun 04:49:32 AM 61.2775 155.7972 238° Southwest  Level FlightAware Approximate
Sun 04:50:32 AM 61.2109 155.5797 237° Southwest  Level FlightAware Approximate
Sun 04:51:32 AM 61.1440 155.3632 237° Southwest  Level FlightAware Approximate
Sun 04:52:32 AM 61.0767 155.1476 237° Southwest  Level FlightAware Approximate
Sun 04:53:32 AM 61.0091 154.9329 237° Southwest  Level FlightAware Approximate
Sun 04:54:32 AM 60.9412 154.7191 237° Southwest  Level FlightAware Approximate
Sun 04:55:32 AM 60.8729 154.5063 236° Southwest  Level FlightAware Approximate
Sun 04:56:32 AM 60.8042 154.2943 236° Southwest  Level FlightAware Approximate
Sun 04:57:32 AM 60.7353 154.0833 236° Southwest  Level FlightAware Approximate
Sun 04:58:32 AM 60.6660 153.8731 236° Southwest  Level FlightAware Approximate
Sun 04:59:32 AM 60.5964 153.6639 236° Southwest  Level FlightAware Approximate
Sun 05:00:32 AM 60.5264 153.4556 236° Southwest  Level FlightAware Approximate
Sun 05:01:32 AM 60.4562 153.2481 235° Southwest  Level FlightAware Approximate
Sun 05:02:32 AM 60.3856 153.0416 235° Southwest  Level FlightAware Approximate
Sun 05:03:32 AM 60.3147 152.8360 235° Southwest  Level FlightAware Approximate
Sun 05:04:32 AM 60.2435 152.6312 235° Southwest  Level FlightAware Approximate
Sun 05:05:32 AM 60.1720 152.4274 235° Southwest  Level FlightAware Approximate
Sun 05:06:32 AM 60.1001 152.2244 235° Southwest  Level FlightAware Approximate
Sun 05:07:32 AM 60.0317 152.0329 234° Southwest  Level FlightAware Approximate
Sun 05:08:32 AM 59.9631 151.8422 234° Southwest  Level FlightAware Approximate
Sun 05:09:32 AM 59.8942 151.6522 234° Southwest  Level FlightAware Approximate
Sun 05:10:32 AM 59.8250 151.4631 234° Southwest  Level FlightAware Approximate
Sun 05:11:32 AM 59.7555 151.2747 234° Southwest  Level FlightAware Approximate
Sun 05:12:32 AM 59.6858 151.0872 234° Southwest  Level FlightAware Approximate
Sun 05:13:32 AM 59.6158 150.9004 233° Southwest  Level FlightAware Approximate
Sun 05:14:32 AM 59.5456 150.7143 233° Southwest  Level FlightAware Approximate
Sun 05:15:32 AM 59.4750 150.5291 233° Southwest  Level FlightAware Approximate
Sun 05:16:32 AM 59.4043 150.3446 233° Southwest  Level FlightAware Approximate
Sun 05:17:32 AM 59.3332 150.1609 233° Southwest  Level FlightAware Approximate
Sun 05:18:32 AM 59.2619 149.9780 233° Southwest  Level FlightAware Approximate
Sun 05:19:32 AM 59.1904 149.7958 232° Southwest  Level FlightAware Approximate
Sun 05:20:32 AM 59.1185 149.6144 232° Southwest  Level FlightAware Approximate
Sun 05:21:32 AM 59.0465 149.4338 232° Southwest  Level FlightAware Approximate
Sun 05:22:32 AM 58.9742 149.2539 232° Southwest  Level FlightAware Approximate
Sun 05:23:32 AM 58.9016 149.0748 232° Southwest  Level FlightAware Approximate
Sun 05:24:32 AM 58.8288 148.8964 232° Southwest  Level FlightAware Approximate
Sun 05:25:32 AM 58.7558 148.7188 231° Southwest  Level FlightAware Approximate
Sun 05:26:32 AM 58.6825 148.5419 231° Southwest  Level FlightAware Approximate
Sun 05:27:32 AM 58.6089 148.3658 230° Southwest  Level FlightAware Approximate
Sun 05:28:32 AM 58.5336 148.1929 230° Southwest  Level FlightAware Approximate
Sun 05:29:32 AM 58.4580 148.0207 230° Southwest  Level FlightAware Approximate
Sun 05:30:32 AM 58.3822 147.8493 230° Southwest  Level FlightAware Approximate
Sun 05:31:32 AM 58.3061 147.6786 230° Southwest  Level FlightAware Approximate
Sun 05:32:32 AM 58.2298 147.5087 229° Southwest  Level FlightAware Approximate
Sun 05:33:32 AM 58.1533 147.3395 229° Southwest  Level FlightAware Approximate
Sun 05:34:32 AM 58.0766 147.1710 229° Southwest  Level FlightAware Approximate
Sun 05:35:32 AM 57.9997 147.0032 229° Southwest  Level FlightAware Approximate
Sun 05:36:32 AM 57.9225 146.8362 229° Southwest  Level FlightAware Approximate
Sun 05:37:32 AM 57.8451 146.6699 229° Southwest  Level FlightAware Approximate
Sun 05:38:32 AM 57.7675 146.5043 229° Southwest  Level FlightAware Approximate
Sun 05:39:32 AM 57.6897 146.3394 228° Southwest  Level FlightAware Approximate
Sun 05:40:32 AM 57.6117 146.1752 228° Southwest  Level FlightAware Approximate
Sun 05:41:32 AM 57.5334 146.0117 228° Southwest  Level FlightAware Approximate
Sun 05:42:32 AM 57.4550 145.8489 228° Southwest  Level FlightAware Approximate
Sun 05:43:32 AM 57.3763 145.6868 228° Southwest  Level FlightAware Approximate
Sun 05:44:32 AM 57.2974 145.5255 228° Southwest  Level FlightAware Approximate
Sun 05:45:32 AM 57.2184 145.3647 228° Southwest  Level FlightAware Approximate
Sun 05:46:32 AM 57.1391 145.2047 228° Southwest  Level FlightAware Approximate
Sun 05:47:32 AM 57.0596 145.0454 227° Southwest  Level FlightAware Approximate
Sun 05:48:32 AM 56.9799 144.8867 227° Southwest  Level FlightAware Approximate
Sun 05:49:32 AM 56.9001 144.7288 227° Southwest  Level FlightAware Approximate
Sun 05:50:32 AM 56.8200 144.5715 227° Southwest  Level FlightAware Approximate
Sun 05:51:32 AM 56.7397 144.4149 227° Southwest  Level FlightAware Approximate
Sun 05:52:32 AM 56.6592 144.2589 227° Southwest  Level FlightAware Approximate
Sun 05:53:32 AM 56.5785 144.1036 227° Southwest  Level FlightAware Approximate
Sun 05:54:32 AM 56.4977 143.9490 226° Southwest  Level FlightAware Approximate
Sun 05:55:32 AM 56.4166 143.7950 226° Southwest  Level FlightAware Approximate
Sun 05:56:32 AM 56.3354 143.6417 226° Southwest  Level FlightAware Approximate
Sun 05:57:32 AM 56.2540 143.4891 226° Southwest  Level FlightAware Approximate
Sun 05:58:32 AM 56.1724 143.3371 226° Southwest  Level FlightAware Approximate
Sun 05:59:32 AM 56.0905 143.1857 226° Southwest  Level FlightAware Approximate
Sun 06:00:32 AM 56.0086 143.0350 226° Southwest  Level FlightAware Approximate
Sun 06:01:32 AM 55.9264 142.8849 265° West  Level FlightAware Approximate
Sun 06:02:32 AM 55.9171 142.6876 225° Southwest  Level FlightAware Approximate
Sun 06:03:32 AM 55.8339 142.5397 225° Southwest  Level FlightAware Approximate
Sun 06:04:32 AM 55.7506 142.3923 225° Southwest  Level FlightAware Approximate
Sun 06:05:32 AM 55.6670 142.2456 225° Southwest  Level FlightAware Approximate
Sun 06:06:32 AM 55.5834 142.0995 225° Southwest  Level FlightAware Approximate
Sun 06:07:32 AM 55.4995 141.9541 224° Southwest  Level FlightAware Approximate
Sun 06:08:32 AM 55.4155 141.8092 224° Southwest  Level FlightAware Approximate
Sun 06:09:32 AM 55.3312 141.6650 224° Southwest  Level FlightAware Approximate
Sun 06:10:32 AM 55.2469 141.5214 224° Southwest  Level FlightAware Approximate
Sun 06:11:32 AM 55.1623 141.3784 224° Southwest  Level FlightAware Approximate
Sun 06:12:32 AM 55.0776 141.2360 224° Southwest  Level FlightAware Approximate
Sun 06:13:32 AM 54.9927 141.0942 224° Southwest  Level FlightAware Approximate
Sun 06:14:32 AM 54.9077 140.9530 224° Southwest  Level FlightAware Approximate
Sun 06:15:32 AM 54.8225 140.8124 223° Southwest  Level FlightAware Approximate
Sun 06:16:32 AM 54.7371 140.6723 223° Southwest  Level FlightAware Approximate
Sun 06:17:32 AM 54.6516 140.5329 223° Southwest  Level FlightAware Approximate
Sun 06:18:32 AM 54.5659 140.3941 223° Southwest  Level FlightAware Approximate
Sun 06:19:32 AM 54.4801 140.2558 223° Southwest  Level FlightAware Approximate
Sun 06:20:32 AM 54.3941 140.1182 223° Southwest  Level FlightAware Approximate
Sun 06:21:32 AM 54.3080 139.9813 223° Southwest  Level FlightAware Approximate
Sun 06:22:32 AM 54.2219 139.8450 222° Southwest  Level FlightAware Approximate
Sun 06:23:32 AM 54.1351 139.7100 227° Southwest  Level FlightAware Approximate
Sun 06:24:32 AM 54.0545 139.5647 227° Southwest  Level FlightAware Approximate
Sun 06:25:32 AM 53.9736 139.4200 226° Southwest  Level FlightAware Approximate
Sun 06:26:32 AM 53.8926 139.2758 226° Southwest  Level FlightAware Approximate
Sun 06:27:32 AM 53.8114 139.1322 226° Southwest  Level FlightAware Approximate
Sun 06:28:32 AM 53.7301 138.9891 226° Southwest  Level FlightAware Approximate
Sun 06:29:32 AM 53.6486 138.8466 226° Southwest  Level FlightAware Approximate
Sun 06:30:32 AM 53.5669 138.7047 226° Southwest  Level FlightAware Approximate
Sun 06:31:32 AM 53.4850 138.5633 226° Southwest  Level FlightAware Approximate
Sun 06:32:32 AM 53.4030 138.4224 226° Southwest  Level FlightAware Approximate
Sun 06:33:32 AM 53.3208 138.2821 225° Southwest  Level FlightAware Approximate
Sun 06:34:32 AM 53.2384 138.1423 225° Southwest  Level FlightAware Approximate
Sun 06:35:32 AM 53.1559 138.0031 225° Southwest  Level FlightAware Approximate
Sun 06:36:32 AM 53.0732 137.8644 225° Southwest  Level FlightAware Approximate
Sun 06:37:32 AM 52.9904 137.7262 225° Southwest  Level FlightAware Approximate
Sun 06:38:32 AM 52.9074 137.5886 225° Southwest  Level FlightAware Approximate
Sun 06:39:32 AM 52.8242 137.4515 225° Southwest  Level FlightAware Approximate
Sun 06:40:32 AM 52.7409 137.3149 225° Southwest  Level FlightAware Approximate
Sun 06:41:32 AM 52.6575 137.1788 225° Southwest  Level FlightAware Approximate
Sun 06:42:32 AM 52.5738 137.0433 224° Southwest  Level FlightAware Approximate
Sun 06:43:32 AM 52.4901 136.9082 224° Southwest  Level FlightAware Approximate
Sun 06:44:32 AM 52.4061 136.7737 224° Southwest  Level FlightAware Approximate
Sun 06:45:32 AM 52.3221 136.6397 224° Southwest  Level FlightAware Approximate
Sun 06:46:32 AM 52.2378 136.5062 224° Southwest  Level FlightAware Approximate
Sun 06:47:32 AM 52.1534 136.3732 224° Southwest  Level FlightAware Approximate
Sun 06:48:32 AM 52.0689 136.2407 224° Southwest  Level FlightAware Approximate
Sun 06:49:32 AM 51.9842 136.1087 224° Southwest  Level FlightAware Approximate
Sun 06:50:32 AM 51.8994 135.9773 224° Southwest  Level FlightAware Approximate
Sun 06:51:32 AM 51.8144 135.8463 224° Southwest  Level FlightAware Approximate
Sun 06:52:32 AM 51.7293 135.7158 223° Southwest  Level FlightAware Approximate
Sun 06:53:32 AM 51.6440 135.5858 223° Southwest  Level FlightAware Approximate
Sun 06:54:32 AM 51.5586 135.4563 223° Southwest  Level FlightAware Approximate
Sun 06:55:32 AM 51.4731 135.3272 223° Southwest  Level FlightAware Approximate
Sun 06:56:32 AM 51.3874 135.1987 223° Southwest  Level FlightAware Approximate
Sun 06:57:32 AM 51.3016 135.0706 223° Southwest  Level FlightAware Approximate
Sun 06:58:32 AM 51.2156 134.9430 223° Southwest  Level FlightAware Approximate
Sun 06:59:32 AM 51.1295 134.8159 223° Southwest  Level FlightAware Approximate
Sun 07:00:32 AM 51.0432 134.6893 223° Southwest  Level FlightAware Approximate
Sun 07:01:32 AM 50.9568 134.5631 223° Southwest  Level FlightAware Approximate
Sun 07:02:32 AM 50.8703 134.4374 222° Southwest  Level FlightAware Approximate
Sun 07:03:32 AM 50.7837 134.3121 222° Southwest  Level FlightAware Approximate
Sun 07:04:32 AM 50.6969 134.1874 222° Southwest  Level FlightAware Approximate
Sun 07:05:32 AM 50.6100 134.0630 222° Southwest  Level FlightAware Approximate
Sun 07:06:32 AM 50.5229 133.9392 222° Southwest  Level FlightAware Approximate
Sun 07:07:32 AM 50.4357 133.8158 222° Southwest  Level FlightAware Approximate
Sun 07:08:32 AM 50.3484 133.6929 222° Southwest  Level FlightAware Approximate
Sun 07:09:32 AM 50.2610 133.5704 222° Southwest  Level FlightAware Approximate
Sun 07:10:32 AM 50.1734 133.4483 222° Southwest  Level FlightAware Approximate
Sun 07:11:32 AM 50.0857 133.3267 222° Southwest  Level FlightAware Approximate
Sun 07:12:32 AM 49.9979 133.2056 221° Southwest  Level FlightAware Approximate
Sun 07:13:32 AM 49.9100 133.0849 221° Southwest  Level FlightAware Approximate
Sun 07:14:32 AM 49.8219 132.9646 221° Southwest  Level FlightAware Approximate
Sun 07:15:32 AM 49.7337 132.8448 221° Southwest  Level FlightAware Approximate
Sun 07:16:32 AM 49.6454 132.7254 221° Southwest  Level FlightAware Approximate
Sun 07:17:32 AM 49.5569 132.6064 221° Southwest  Level FlightAware Approximate
Sun 07:18:32 AM 49.4684 132.4879 221° Southwest  Level FlightAware Approximate
Sun 07:19:32 AM 49.3797 132.3698 221° Southwest  Level FlightAware Approximate
Sun 07:20:32 AM 49.2909 132.2521 221° Southwest  Level FlightAware Approximate
Sun 07:21:32 AM 49.2020 132.1349 221° Southwest  Level FlightAware Approximate
Sun 07:22:32 AM 49.1129 132.0180 221° Southwest  Level FlightAware Approximate
Sun 07:23:32 AM 49.0238 131.9016 221° Southwest  Level FlightAware Approximate
Sun 07:24:32 AM 48.9345 131.7856 220° Southwest  Level FlightAware Approximate
Sun 07:25:32 AM 48.8451 131.6700 220° Southwest  Level FlightAware Approximate
Sun 07:26:32 AM 48.7556 131.5549 230° Southwest  Level FlightAware Approximate
Sun 07:27:32 AM 48.6794 131.4197 229° Southwest  Level FlightAware Approximate
Sun 07:28:32 AM 48.6030 131.2849 229° Southwest  Level FlightAware Approximate
Sun 07:29:32 AM 48.5265 131.1505 229° Southwest  Level FlightAware Approximate
Sun 07:30:32 AM 48.4497 131.0166 229° Southwest  Level FlightAware Approximate
Sun 07:31:32 AM 48.3729 130.8830 229° Southwest  Level FlightAware Approximate
Sun 07:32:32 AM 48.2959 130.7498 229° Southwest  Level FlightAware Approximate
Sun 07:33:32 AM 48.2187 130.6171 229° Southwest  Level FlightAware Approximate
Sun 07:34:32 AM 48.1414 130.4847 229° Southwest  Level FlightAware Approximate
Sun 07:35:32 AM 48.0639 130.3528 229° Southwest  Level FlightAware Approximate
Sun 07:36:32 AM 47.9863 130.2212 229° Southwest  Level FlightAware Approximate
Sun 07:37:32 AM 47.9085 130.0901 228° Southwest  Level FlightAware Approximate
Sun 07:38:32 AM 47.8306 129.9593 228° Southwest  Level FlightAware Approximate
Sun 07:39:32 AM 47.7526 129.8289 228° Southwest  Level FlightAware Approximate
Sun 07:40:32 AM 47.6744 129.6989 228° Southwest  Level FlightAware Approximate
Sun 07:41:32 AM 47.5960 129.5693 228° Southwest  Level FlightAware Approximate
Sun 07:42:32 AM 47.5175 129.4401 228° Southwest  Level FlightAware Approximate
Sun 07:43:32 AM 47.4388 129.3113 228° Southwest  Level FlightAware Approximate
Sun 07:44:32 AM 47.3601 129.1829 235° Southwest  Level FlightAware Approximate
Sun 07:45:32 AM 47.2924 129.0414 235° Southwest  Level FlightAware Approximate
Sun 07:46:32 AM 47.2246 128.9003 235° Southwest  Level FlightAware Approximate
Sun 07:47:32 AM 47.1567 128.7596 235° Southwest  Level FlightAware Approximate
Sun 07:48:32 AM 47.0885 128.6192 234° Southwest  Level FlightAware Approximate
Sun 07:49:32 AM 47.0202 128.4792 234° Southwest  Level FlightAware Approximate
Sun 07:50:32 AM 46.9517 128.3395 234° Southwest  Level FlightAware Approximate
Sun 07:51:32 AM 46.8831 128.2002 234° Southwest  Level FlightAware Approximate
Sun 07:52:32 AM 46.8143 128.0613 234° Southwest  Level FlightAware Approximate
Sun 07:53:32 AM 46.7453 127.9227 234° Southwest  Level FlightAware Approximate
Sun 07:54:32 AM 46.6761 127.7845 234° Southwest  Level FlightAware Approximate
Sun 07:55:32 AM 46.6068 127.6466 234° Southwest  Level FlightAware Approximate
Sun 07:56:32 AM 46.5373 127.5091 234° Southwest  Level FlightAware Approximate
Sun 07:57:32 AM 46.4677 127.3719 234° Southwest  Level FlightAware Approximate
Sun 07:58:32 AM 46.3979 127.2351 233° Southwest  Level FlightAware Approximate
Sun 07:59:32 AM 46.3279 127.0986 233° Southwest  Level FlightAware Approximate
Sun 08:00:32 AM 46.2578 126.9625 233° Southwest  Level FlightAware Approximate
Sun 08:01:32 AM 46.1875 126.8267 233° Southwest  Level FlightAware Approximate
Sun 08:02:32 AM 46.1170 126.6913 233° Southwest  Level FlightAware Approximate
Sun 08:03:32 AM 46.0464 126.5562 233° Southwest  Level FlightAware Approximate
Sun 08:04:32 AM 45.9756 126.4214 233° Southwest  Level FlightAware Approximate
Sun 08:05:32 AM 45.9047 126.2871 233° Southwest  Level FlightAware Approximate
Sun 08:06:32 AM 45.8336 126.1530 233° Southwest  Level FlightAware Approximate
Sun 08:07:32 AM 45.7623 126.0193 233° Southwest  Level FlightAware Approximate
Sun 08:08:32 AM 45.6909 125.8859 232° Southwest  Level FlightAware Approximate
Sun 08:09:32 AM 45.6194 125.7529 232° Southwest  Level FlightAware Approximate
Sun 08:10:32 AM 45.5476 125.6202 232° Southwest  Level FlightAware Approximate
Sun 08:11:32 AM 45.4758 125.4879 232° Southwest  Level FlightAware Approximate
Sun 08:12:32 AM 45.4038 125.3559 232° Southwest  Level FlightAware Approximate
Sun 08:13:32 AM 45.3316 125.2242 232° Southwest  Level FlightAware Approximate
Sun 08:14:32 AM 45.2593 125.0929 232° Southwest  Level FlightAware Approximate
Sun 08:15:32 AM 45.1868 124.9619 232° Southwest  Level FlightAware Approximate
Sun 08:16:32 AM 45.1142 124.8312 233° Southwest  Level FlightAware Approximate
Sun 08:17:32 AM 45.0436 124.6985 233° Southwest  Level FlightAware Approximate
Sun 08:18:32 AM 44.9729 124.5660 233° Southwest  Level FlightAware Approximate
Sun 08:19:32 AM 44.9020 124.4340 233° Southwest  Level FlightAware Approximate
Sun 08:20:32 AM 44.8310 124.3022 233° Southwest  Level FlightAware Approximate
Sun 08:21:32 AM 44.7598 124.1708 233° Southwest  Level FlightAware Approximate
Sun 08:22:32 AM 44.6885 124.0396 233° Southwest  Level FlightAware Approximate
Sun 08:23:32 AM 44.6170 123.9089 232° Southwest  Level FlightAware Approximate
Sun 08:24:32 AM 44.5454 123.7784 232° Southwest  Level FlightAware Approximate
Sun 08:25:32 AM 44.4736 123.6482 232° Southwest  Level FlightAware Approximate
Sun 08:26:32 AM 44.4017 123.5184 232° Southwest  Level FlightAware Approximate
Sun 08:27:32 AM 44.3296 123.3889 232° Southwest  Level FlightAware Approximate
Sun 08:28:32 AM 44.2574 123.2597 232° Southwest  Level FlightAware Approximate
Sun 08:29:32 AM 44.1851 123.1308 232° Southwest  Level FlightAware Approximate
Sun 08:30:32 AM 44.1125 123.0023 232° Southwest  Level FlightAware Approximate
Sun 08:31:32 AM 44.0399 122.8740 232° Southwest  Level FlightAware Approximate
Sun 08:32:32 AM 43.9672 122.7463 232° Southwest  Level FlightAware Approximate
Sun 08:33:32 AM 43.8944 122.6188 232° Southwest  Level FlightAware Approximate
Sun 08:34:32 AM 43.8214 122.4917 231° Southwest  Level FlightAware Approximate
Sun 08:35:32 AM 43.7483 122.3649 231° Southwest  Level FlightAware Approximate
Sun 08:36:32 AM 43.6751 122.2384 231° Southwest  Level FlightAware Approximate
Sun 08:37:32 AM 43.6017 122.1122 231° Southwest  Level FlightAware Approximate
Sun 08:38:32 AM 43.5282 121.9863 231° Southwest  Level FlightAware Approximate
Sun 08:39:32 AM 43.4545 121.8607 231° Southwest  Level FlightAware Approximate
Sun 08:40:32 AM 43.3807 121.7355 231° Southwest  Level FlightAware Approximate
Sun 08:41:32 AM 43.3068 121.6105 231° Southwest  Level FlightAware Approximate
Sun 08:42:32 AM 43.2327 121.4859 231° Southwest  Level FlightAware Approximate
Sun 08:43:32 AM 43.1585 121.3615 231° Southwest  Level FlightAware Approximate
Sun 08:44:32 AM 43.0842 121.2374 231° Southwest  Level FlightAware Approximate
Sun 08:45:32 AM 43.0097 121.1137 230° Southwest  Level FlightAware Approximate
Sun 08:46:32 AM 42.9351 120.9902 230° Southwest  Level FlightAware Approximate
Sun 08:47:32 AM 42.8604 120.8671 230° Southwest  Level FlightAware Approximate
Sun 08:48:32 AM 42.7855 120.7442 230° Southwest  Level FlightAware Approximate
Sun 08:49:32 AM 42.7105 120.6217 230° Southwest  Level FlightAware Approximate
Sun 08:50:32 AM 42.6353 120.4994 230° Southwest  Level FlightAware Approximate
Sun 08:51:32 AM 42.5601 120.3774 230° Southwest  Level FlightAware Approximate
Sun 08:52:32 AM 42.4847 120.2558 230° Southwest  Level FlightAware Approximate
Sun 08:53:32 AM 42.4092 120.1344 230° Southwest  Level FlightAware Approximate
Sun 08:54:32 AM 42.3335 120.0133 230° Southwest  Level FlightAware Approximate
Sun 08:55:32 AM 42.2578 119.8925 230° Southwest  Level FlightAware Approximate
Sun 08:56:32 AM 42.1819 119.7720 230° Southwest  Level FlightAware Approximate
Sun 08:57:32 AM 42.1058 119.6518 230° Southwest  Level FlightAware Approximate
Sun 08:58:32 AM 42.0297 119.5318 229° Southwest  Level FlightAware Approximate
Sun 08:59:32 AM 41.9534 119.4122 229° Southwest  Level FlightAware Approximate
Sun 09:00:32 AM 41.8770 119.2928 229° Southwest  Level FlightAware Approximate
Sun 09:01:32 AM 41.8005 119.1738 229° Southwest  Level FlightAware Approximate
Sun 09:02:32 AM 41.7239 119.0550 229° Southwest  Level FlightAware Approximate
Sun 09:03:32 AM 41.6471 118.9365 229° Southwest  Level FlightAware Approximate
Sun 09:04:32 AM 41.5702 118.8183 229° Southwest  Level FlightAware Approximate
Sun 09:05:32 AM 41.4932 118.7003 229° Southwest  Level FlightAware Approximate
Sun 09:06:32 AM 41.4160 118.5826 229° Southwest  Level FlightAware Approximate
Sun 09:07:32 AM 41.3388 118.4653 229° Southwest  Level FlightAware Approximate
Sun 09:08:32 AM 41.2614 118.3482 229° Southwest  Level FlightAware Approximate
Sun 09:09:32 AM 41.1839 118.2313 229° Southwest  Level FlightAware Approximate
Sun 09:10:32 AM 41.1063 118.1148 228° Southwest  Level FlightAware Approximate
Sun 09:11:32 AM 41.0286 117.9985 181° South  Level FlightAware Approximate
Sun 09:12:32 AM 40.9195 117.9959 232° Southwest  Level FlightAware Approximate
Sun 09:13:32 AM 40.8473 117.8739 230° Southwest  Level FlightAware Approximate
Sun 09:14:32 AM 40.7729 117.7578 233° Southwest  Level FlightAware Approximate
Sun 09:15:32 AM 40.7025 117.6343 232° Southwest  Level FlightAware Approximate
Sun 09:16:32 AM 40.6300 117.5129 233° Southwest  Level FlightAware Approximate
Sun 09:17:32 AM 40.5601 117.3891 231° Southwest  Level FlightAware Approximate
Sun 09:18:32 AM 40.4870 117.2687 233° Southwest  Level FlightAware Approximate
Sun 09:19:32 AM 40.4166 117.1456 231° Southwest  Level FlightAware Approximate
Sun 09:20:32 AM 40.3425 117.0265 234° Southwest  Level FlightAware Approximate
Sun 09:21:32 AM 40.2734 116.9035 228° Southwest  Level FlightAware Approximate
Sun 09:22:32 AM 40.1967 116.7900 230° Southwest  Level FlightAware Approximate
Sun 09:23:32 AM 40.1227 116.6742 231° Southwest  Level FlightAware Approximate
Sun 09:24:32 AM 40.0667 116.5833 North  Level FlightAware Approximate
Sun 09:25:32 AM 40.1835 116.5940 184° South  Level Estimated
Sun 09:26:32 AM 40.0667 116.5833 North  Level FlightAware Approximate
Sun 09:27:32 AM 40.1835 116.5940 184° South  Level Estimated
Sun 09:28:32 AM 40.0667 116.5833 North  Level FlightAware Approximate
Sun 09:29:32 AM 40.1835 116.5940 184° South  Level Estimated
Sun 09:30:32 AM 40.0667 116.5833 North  Level FlightAware Approximate
Sun 09:31:32 AM 40.1835 116.5940 184° South  Level Estimated
Sun 09:32:32 AM 40.0667 116.5833 North  Level FlightAware Approximate
Sun 09:33:32 AM 40.1835 116.5940 184° South  Level Estimated
Sun 09:34:32 AM 40.0667 116.5833 North  Level FlightAware Approximate
Sun 09:35:32 AM 40.1835 116.5940 184° South  Level Estimated
Sun 09:36:32 AM 40.0667 116.5833 North  Level FlightAware Approximate
Sun 09:37:32 AM 40.1835 116.5940 184° South  Level Estimated
Sun 09:38:32 AM 40.0667 116.5833 North  Level FlightAware Approximate
Sun 09:39:32 AM 40.1835 116.5940 184° South  Level Estimated
Sun 09:40:32 AM 40.0667 116.5833 184° South  Level FlightAware Approximate

Login

Don't have an account? Register now (free) for customized features, flight alerts, and more!